ENGINEERING TRACK TESTING
Weather & Rail Temperature Monitoring
Weather station EDGEWOOD
Edgewood Impact Detector Site (Edgewood MD)
Measurement History
![]() ENGINEERING TRACK TESTING Weather station EDGEWOOD Edgewood Impact Detector Site (Edgewood MD) Measurement History ![]() |
Conditions for past 24 hours (since 09/01/2026 01:31 AM)
| Time | Track 3 W rail | Track 3 E rail | Track 2 W rail | Track 2 E rail | Outside Air Temperature |
Solar Radiation |
Max. Wind | Humidity | Air Pressure | Rain | |
| Speed | Dir | ||||||||||
| 09/02/2026 01:15 AM | 79 °F | 79 °F | 88 °F | 79 °F | 77.9 °F | 0 watt/m2 | 0 mph | --- | 84 % | 30.481 in Hg | 0 in |
| 09/02/2026 01:00 AM | 80 °F | 80 °F | 89 °F | 80 °F | 77.9 °F | 0 watt/m2 | 0 mph | --- | 84 % | 30.487 in Hg | 0 in |
| 09/02/2026 12:45 AM | 80 °F | 80 °F | 89 °F | 80 °F | 78 °F | 0 watt/m2 | 0 mph | --- | 84 % | 30.494 in Hg | 0 in |
| 09/02/2026 12:30 AM | 80 °F | 80 °F | 89 °F | 81 °F | 77.9 °F | 0 watt/m2 | 0 mph | --- | 84 % | 30.483 in Hg | 0 in |
| 09/02/2026 12:15 AM | 80 °F | 81 °F | 89 °F | 81 °F | 78 °F | 0 watt/m2 | 0 mph | --- | 83 % | 30.469 in Hg | 0 in |
| 09/02/2026 12:00 AM | 81 °F | 81 °F | 90 °F | 81 °F | 78.2 °F | 0 watt/m2 | 0 mph | --- | 83 % | 30.46 in Hg | 0 in |
| 09/01/2026 11:45 PM | 81 °F | 81 °F | 90 °F | 82 °F | 78.3 °F | 0 watt/m2 | 3 mph | SSW | 83 % | 30.452 in Hg | 0 in |
| 09/01/2026 11:30 PM | 82 °F | 82 °F | 91 °F | 82 °F | 78.5 °F | 0 watt/m2 | 0 mph | --- | 82 % | 30.452 in Hg | 0 in |
| 09/01/2026 11:15 PM | 82 °F | 82 °F | 91 °F | 83 °F | 78.5 °F | 0 watt/m2 | 0 mph | --- | 82 % | 30.44 in Hg | 0 in |
| 09/01/2026 11:00 PM | 83 °F | 83 °F | 92 °F | 83 °F | 79.2 °F | 0 watt/m2 | 0 mph | --- | 81 % | 30.447 in Hg | 0 in |
| 09/01/2026 10:45 PM | 83 °F | 84 °F | 92 °F | 84 °F | 79.8 °F | 0 watt/m2 | 3 mph | NE | 79 % | 30.432 in Hg | 0 in |
| 09/01/2026 10:30 PM | 84 °F | 84 °F | 93 °F | 85 °F | 80.6 °F | 0 watt/m2 | 3 mph | ENE | 78 % | 30.431 in Hg | 0 in |
| 09/01/2026 10:15 PM | 85 °F | 85 °F | 93 °F | 85 °F | 81 °F | 0 watt/m2 | 5 mph | ENE | 77 % | 30.416 in Hg | 0 in |
| 09/01/2026 10:00 PM | 85 °F | 86 °F | 94 °F | 86 °F | 82.3 °F | 0 watt/m2 | 10 mph | ENE | 76 % | 30.427 in Hg | 0 in |
| 09/01/2026 09:45 PM | 86 °F | 87 °F | 94 °F | 86 °F | 83.3 °F | 0 watt/m2 | 12 mph | NE | 80 % | 30.422 in Hg | 0 in |
| 09/01/2026 09:30 PM | 87 °F | 87 °F | 95 °F | 87 °F | 84 °F | 0 watt/m2 | 0 mph | --- | 83 % | 30.383 in Hg | 0 in |
| 09/01/2026 09:15 PM | 87 °F | 88 °F | 95 °F | 88 °F | 84.2 °F | 0 watt/m2 | 0 mph | --- | 82 % | 30.377 in Hg | 0 in |
| 09/01/2026 09:00 PM | 88 °F | 88 °F | 96 °F | 88 °F | 84.4 °F | 0 watt/m2 | 1 mph | S | 81 % | 30.368 in Hg | 0 in |
| 09/01/2026 08:45 PM | 89 °F | 89 °F | 97 °F | 89 °F | 85.3 °F | 0 watt/m2 | 2 mph | ENE | 79 % | 30.379 in Hg | 0 in |
| 09/01/2026 08:30 PM | 89 °F | 90 °F | 98 °F | 90 °F | 85.7 °F | 0 watt/m2 | 0 mph | --- | 78 % | 30.376 in Hg | 0 in |
| 09/01/2026 08:15 PM | 90 °F | 91 °F | 98 °F | 91 °F | 86 °F | 0 watt/m2 | 0 mph | --- | 77 % | 30.361 in Hg | 0 in |
| 09/01/2026 08:00 PM | 91 °F | 92 °F | 100 °F | 92 °F | 86.2 °F | 0 watt/m2 | 0 mph | --- | 77 % | 30.336 in Hg | 0 in |
| 09/01/2026 07:45 PM | 93 °F | 94 °F | 101 °F | 94 °F | 86.8 °F | 1 watt/m2 | 5 mph | SW | 76 % | 30.351 in Hg | 0 in |
| 09/01/2026 07:30 PM | 94 °F | 95 °F | 102 °F | 95 °F | 87.2 °F | 10 watt/m2 | 2 mph | SSE | 74 % | 30.361 in Hg | 0 in |
| 09/01/2026 07:15 PM | 96 °F | 97 °F | 104 °F | 97 °F | 87.5 °F | 27 watt/m2 | 0 mph | --- | 75 % | 30.37 in Hg | 0 in |
| 09/01/2026 07:00 PM | 97 °F | 98 °F | 105 °F | 98 °F | 87.9 °F | 35 watt/m2 | 4 mph | ENE | 74 % | 30.367 in Hg | 0 in |
| 09/01/2026 06:45 PM | 99 °F | 100 °F | 107 °F | 100 °F | 88.5 °F | 47 watt/m2 | 2 mph | SW | 72 % | 30.368 in Hg | 0 in |
| 09/01/2026 06:30 PM | 100 °F | 101 °F | 108 °F | 102 °F | 89.2 °F | 58 watt/m2 | 2 mph | ENE | 70 % | 30.365 in Hg | 0 in |
| 09/01/2026 06:15 PM | 102 °F | 103 °F | 110 °F | 104 °F | 89.6 °F | 84 watt/m2 | 0 mph | --- | 70 % | 30.364 in Hg | 0 in |
| 09/01/2026 06:00 PM | 104 °F | 105 °F | 111 °F | 106 °F | 90 °F | 71 watt/m2 | 2 mph | SSW | 67 % | 30.369 in Hg | 0 in |
| 09/01/2026 05:45 PM | 106 °F | 107 °F | 113 °F | 108 °F | 91 °F | 56 watt/m2 | 0 mph | --- | 65 % | 30.37 in Hg | 0 in |
| 09/01/2026 05:30 PM | 108 °F | 109 °F | 114 °F | 109 °F | 91.6 °F | 57 watt/m2 | 1 mph | SE | 63 % | 30.371 in Hg | 0 in |
| 09/01/2026 05:15 PM | 109 °F | 110 °F | 115 °F | 110 °F | 92.4 °F | 82 watt/m2 | 0 mph | --- | 65 % | 30.376 in Hg | 0 in |
| 09/01/2026 05:00 PM | 110 °F | 111 °F | 116 °F | 110 °F | 93.2 °F | 125 watt/m2 | 1 mph | S | 65 % | 30.377 in Hg | 0 in |
| 09/01/2026 04:45 PM | 112 °F | 113 °F | 118 °F | 112 °F | 94.2 °F | 139 watt/m2 | 1 mph | S | 60 % | 30.38 in Hg | 0 in |
| 09/01/2026 04:30 PM | 114 °F | 114 °F | 119 °F | 114 °F | 94.5 °F | 223 watt/m2 | 4 mph | S | 58 % | 30.383 in Hg | 0 in |
| 09/01/2026 04:15 PM | 115 °F | 116 °F | 120 °F | 115 °F | 95.2 °F | 313 watt/m2 | 4 mph | SSE | 57 % | 30.386 in Hg | 0 in |
| 09/01/2026 04:00 PM | 115 °F | 115 °F | 120 °F | 115 °F | 95.6 °F | 301 watt/m2 | 4 mph | SE | 56 % | 30.387 in Hg | 0 in |
| 09/01/2026 03:45 PM | 115 °F | 115 °F | 121 °F | 115 °F | 95.9 °F | 421 watt/m2 | 2 mph | SSW | 54 % | 30.397 in Hg | 0 in |
| 09/01/2026 03:30 PM | 115 °F | 115 °F | 120 °F | 115 °F | 95.2 °F | 639 watt/m2 | 4 mph | SSW | 54 % | 30.401 in Hg | 0 in |
| 09/01/2026 03:15 PM | 115 °F | 115 °F | 121 °F | 115 °F | 95.7 °F | 701 watt/m2 | 8 mph | SSW | 57 % | 30.404 in Hg | 0 in |
| 09/01/2026 03:00 PM | 114 °F | 114 °F | 120 °F | 115 °F | 94.5 °F | 471 watt/m2 | 6 mph | SSW | 58 % | 30.413 in Hg | 0 in |
| 09/01/2026 02:45 PM | 114 °F | 114 °F | 120 °F | 114 °F | 94.6 °F | 690 watt/m2 | 5 mph | NE | 60 % | 30.417 in Hg | 0 in |
| 09/01/2026 02:30 PM | 113 °F | 113 °F | 119 °F | 113 °F | 94.4 °F | 749 watt/m2 | 4 mph | SE | 60 % | 30.412 in Hg | 0 in |
| 09/01/2026 02:15 PM | 111 °F | 111 °F | 117 °F | 112 °F | 94 °F | 762 watt/m2 | 4 mph | SE | 61 % | 30.414 in Hg | 0 in |
| 09/01/2026 02:00 PM | 109 °F | 109 °F | 115 °F | 109 °F | 91.6 °F | 646 watt/m2 | 2 mph | N | 67 % | 30.419 in Hg | 0 in |
| 09/01/2026 01:45 PM | 108 °F | 108 °F | 114 °F | 108 °F | 91.5 °F | 309 watt/m2 | 0 mph | --- | 66 % | 30.422 in Hg | 0 in |
| 09/01/2026 01:30 PM | 106 °F | 106 °F | 112 °F | 106 °F | 90.3 °F | 348 watt/m2 | 0 mph | --- | 68 % | 30.421 in Hg | 0 in |
| 09/01/2026 01:15 PM | 105 °F | 106 °F | 112 °F | 106 °F | 89.3 °F | 306 watt/m2 | 0 mph | --- | 70 % | 30.422 in Hg | 0 in |
| 09/01/2026 01:00 PM | 105 °F | 106 °F | 112 °F | 106 °F | 89.2 °F | 235 watt/m2 | 0 mph | --- | 69 % | 30.427 in Hg | 0 in |
| 09/01/2026 12:45 PM | 108 °F | 109 °F | 115 °F | 109 °F | 90.4 °F | 133 watt/m2 | 0 mph | --- | 66 % | 30.435 in Hg | 0 in |
| 09/01/2026 12:30 PM | 112 °F | 112 °F | 118 °F | 112 °F | 91.6 °F | 167 watt/m2 | 0 mph | --- | 60 % | 30.441 in Hg | 0 in |
| 09/01/2026 12:15 PM | 113 °F | 114 °F | 119 °F | 114 °F | 93.1 °F | 508 watt/m2 | 6 mph | SSW | 56 % | 30.441 in Hg | 0 in |
| 09/01/2026 12:00 PM | 112 °F | 111 °F | 117 °F | 112 °F | 92.3 °F | 699 watt/m2 | 5 mph | SSW | 58 % | 30.442 in Hg | 0 in |
| 09/01/2026 11:45 AM | 110 °F | 110 °F | 115 °F | 110 °F | 90.8 °F | 496 watt/m2 | 9 mph | S | 59 % | 30.449 in Hg | 0 in |
| 09/01/2026 11:30 AM | 109 °F | 109 °F | 114 °F | 109 °F | 90 °F | 470 watt/m2 | 13 mph | SSW | 63 % | 30.452 in Hg | 0 in |
| 09/01/2026 11:15 AM | 107 °F | 107 °F | 113 °F | 107 °F | 90.1 °F | 680 watt/m2 | 0 mph | --- | 63 % | 30.457 in Hg | 0 in |
| 09/01/2026 11:00 AM | 104 °F | 103 °F | 109 °F | 103 °F | 89 °F | 638 watt/m2 | 8 mph | SSW | 65 % | 30.457 in Hg | 0 in |
| 09/01/2026 10:45 AM | 100 °F | 99 °F | 106 °F | 99 °F | 87.5 °F | 602 watt/m2 | 8 mph | SSW | 70 % | 30.456 in Hg | 0 in |
| 09/01/2026 10:30 AM | 96 °F | 95 °F | 102 °F | 95 °F | 86.3 °F | 572 watt/m2 | 5 mph | SSE | 74 % | 30.463 in Hg | 0 in |
| 09/01/2026 10:15 AM | 91 °F | 90 °F | 98 °F | 90 °F | 84 °F | 555 watt/m2 | 5 mph | ESE | 78 % | 30.463 in Hg | 0 in |
| 09/01/2026 10:00 AM | 86 °F | 85 °F | 93 °F | 85 °F | 81.8 °F | 303 watt/m2 | 4 mph | E | 83 % | 30.463 in Hg | 0 in |
| 09/01/2026 09:45 AM | 84 °F | 84 °F | 92 °F | 83 °F | 80.7 °F | 137 watt/m2 | 0 mph | --- | 85 % | 30.461 in Hg | 0 in |
| 09/01/2026 09:30 AM | 84 °F | 83 °F | 91 °F | 82 °F | 80.1 °F | 146 watt/m2 | 0 mph | --- | 85 % | 30.457 in Hg | 0 in |
| 09/01/2026 09:15 AM | 82 °F | 82 °F | 90 °F | 81 °F | 79.5 °F | 171 watt/m2 | 5 mph | NE | 86 % | 30.462 in Hg | 0 in |
| 09/01/2026 09:00 AM | 81 °F | 81 °F | 89 °F | 80 °F | 78.6 °F | 103 watt/m2 | 1 mph | SSW | 86 % | 30.469 in Hg | 0 in |
| 09/01/2026 08:45 AM | 80 °F | 80 °F | 88 °F | 79 °F | 78.2 °F | 137 watt/m2 | 7 mph | SSW | 87 % | 30.48 in Hg | 0 in |
| 09/01/2026 08:30 AM | 79 °F | 79 °F | 87 °F | 77 °F | 77.2 °F | 92 watt/m2 | 0 mph | --- | 90 % | 30.478 in Hg | 0 in |
| 09/01/2026 08:15 AM | 78 °F | 78 °F | 87 °F | 76 °F | 76.5 °F | 104 watt/m2 | 2 mph | NE | 91 % | 30.478 in Hg | 0 in |
| 09/01/2026 08:00 AM | 76 °F | 76 °F | 85 °F | 75 °F | 75.5 °F | 149 watt/m2 | 0 mph | --- | 92 % | 30.474 in Hg | 0 in |
| 09/01/2026 07:45 AM | 74 °F | 74 °F | 83 °F | 74 °F | 74.8 °F | 113 watt/m2 | 0 mph | --- | 92 % | 30.471 in Hg | 0 in |
| 09/01/2026 07:30 AM | 73 °F | 73 °F | 83 °F | 73 °F | 73.9 °F | 64 watt/m2 | 3 mph | NE | 91 % | 30.472 in Hg | 0 in |
| 09/01/2026 07:15 AM | 73 °F | 73 °F | 82 °F | 73 °F | 73.1 °F | 33 watt/m2 | 0 mph | --- | 90 % | 30.469 in Hg | 0 in |
| 09/01/2026 07:00 AM | 73 °F | 73 °F | 82 °F | 73 °F | 72.8 °F | 12 watt/m2 | 4 mph | SSW | 90 % | 30.472 in Hg | 0 in |
| 09/01/2026 06:45 AM | 72 °F | 73 °F | 82 °F | 73 °F | 72.9 °F | 0 watt/m2 | 0 mph | --- | 90 % | 30.469 in Hg | 0 in |
| 09/01/2026 06:30 AM | 73 °F | 73 °F | 82 °F | 73 °F | 73.1 °F | 0 watt/m2 | 0 mph | --- | 90 % | 30.468 in Hg | 0 in |
| 09/01/2026 06:15 AM | 73 °F | 73 °F | 83 °F | 74 °F | 73.3 °F | 0 watt/m2 | 0 mph | --- | 90 % | 30.468 in Hg | 0 in |
| 09/01/2026 06:00 AM | 73 °F | 74 °F | 83 °F | 74 °F | 73.5 °F | 0 watt/m2 | 5 mph | NE | 90 % | 30.461 in Hg | 0 in |
| 09/01/2026 05:45 AM | 74 °F | 74 °F | 83 °F | 74 °F | 73.7 °F | 0 watt/m2 | 0 mph | --- | 90 % | 30.463 in Hg | 0 in |
| 09/01/2026 05:30 AM | 74 °F | 74 °F | 84 °F | 75 °F | 73.7 °F | 0 watt/m2 | 0 mph | --- | 90 % | 30.47 in Hg | 0 in |
| 09/01/2026 05:15 AM | 74 °F | 74 °F | 84 °F | 75 °F | 73.8 °F | 0 watt/m2 | 0 mph | --- | 90 % | 30.473 in Hg | 0 in |
| 09/01/2026 05:00 AM | 74 °F | 74 °F | 84 °F | 75 °F | 73.8 °F | 0 watt/m2 | 0 mph | --- | 90 % | 30.474 in Hg | 0 in |
| 09/01/2026 04:45 AM | 74 °F | 74 °F | 84 °F | 75 °F | 73.6 °F | 0 watt/m2 | 0 mph | --- | 90 % | 30.477 in Hg | 0 in |
| 09/01/2026 04:30 AM | 74 °F | 74 °F | 84 °F | 75 °F | 73.7 °F | 0 watt/m2 | 0 mph | --- | 89 % | 30.472 in Hg | 0 in |
| 09/01/2026 04:15 AM | 74 °F | 74 °F | 84 °F | 75 °F | 73.7 °F | 0 watt/m2 | 0 mph | --- | 90 % | 30.47 in Hg | 0 in |
| 09/01/2026 04:00 AM | 74 °F | 74 °F | 84 °F | 76 °F | 73.8 °F | 0 watt/m2 | 0 mph | --- | 89 % | 30.47 in Hg | 0 in |
| 09/01/2026 03:45 AM | 74 °F | 74 °F | 85 °F | 76 °F | 74 °F | 0 watt/m2 | 0 mph | --- | 89 % | 30.474 in Hg | 0 in |
| 09/01/2026 03:30 AM | 75 °F | 75 °F | 85 °F | 76 °F | 74.1 °F | 0 watt/m2 | 0 mph | --- | 89 % | 30.477 in Hg | 0 in |
| 09/01/2026 03:15 AM | 75 °F | 75 °F | 85 °F | 76 °F | 74.3 °F | 0 watt/m2 | 0 mph | --- | 89 % | 30.476 in Hg | 0 in |
| 09/01/2026 03:00 AM | 75 °F | 75 °F | 85 °F | 76 °F | 74.4 °F | 0 watt/m2 | 0 mph | --- | 89 % | 30.483 in Hg | 0 in |
| 09/01/2026 02:45 AM | 75 °F | 75 °F | 85 °F | 76 °F | 74.4 °F | 0 watt/m2 | 0 mph | --- | 88 % | 30.485 in Hg | 0 in |
| 09/01/2026 02:30 AM | 76 °F | 76 °F | 85 °F | 76 °F | 74.6 °F | 0 watt/m2 | 0 mph | --- | 88 % | 30.489 in Hg | 0 in |
| 09/01/2026 02:15 AM | 76 °F | 76 °F | 85 °F | 76 °F | 74.8 °F | 0 watt/m2 | 0 mph | --- | 88 % | 30.497 in Hg | 0 in |
| 09/01/2026 02:00 AM | 76 °F | 77 °F | 85 °F | 75 °F | 74.9 °F | 0 watt/m2 | 0 mph | --- | 88 % | 30.491 in Hg | 0 in |
| 09/01/2026 01:45 AM | 77 °F | 77 °F | 85 °F | 76 °F | 75.1 °F | 0 watt/m2 | 0 mph | --- | 88 % | 30.493 in Hg | 0 in |